Time;durP1;ratioP1;P1;durP2;ratioP2;P2;SDS_P1;SDS_P2;PMS_P1;PMS_P2;Temp;Humidity;BMP_temperature;BMP_pressure;BME280_temperature;BME280_humidity;BME280_pressure;Samples;Min_cycle;Max_cycle;Signal;HPM_P1;HPM_P2
2022/07/10 00:01:51;;;;;;;7.40;1.77;;;;;;;15.17;63.53;102527.50;3597227;39;20129;-60
2022/07/10 00:04:18;;;;;;;4.75;1.95;;;;;;;15.12;63.68;102523.28;3599279;39;20148;-61
2022/07/10 00:06:46;;;;;;;5.80;1.85;;;;;;;15.09;63.39;102530.59;3597733;39;20121;-60
2022/07/10 00:09:15;;;;;;;4.63;1.55;;;;;;;15.05;64.04;102534.44;3599516;39;20059;-60
2022/07/10 00:11:42;;;;;;;8.50;2.10;;;;;;;14.96;63.88;102529.50;3596689;39;20052;-60
2022/07/10 00:14:08;;;;;;;4.38;1.98;;;;;;;14.98;64.18;102535.72;3598952;39;20160;-61
2022/07/10 00:16:33;;;;;;;6.15;2.03;;;;;;;14.98;64.20;102533.03;3595838;39;20384;-60
2022/07/10 00:18:59;;;;;;;6.32;2.35;;;;;;;14.97;64.39;102531.28;3598457;39;20072;-61
2022/07/10 00:21:24;;;;;;;4.70;2.40;;;;;;;14.93;64.52;102529.66;3597732;39;20051;-60
2022/07/10 00:23:50;;;;;;;6.97;2.88;;;;;;;14.88;64.76;102530.91;3596268;39;20337;-60
2022/07/10 00:26:16;;;;;;;8.38;2.28;;;;;;;14.86;64.40;102522.84;3598282;39;20067;-60
2022/07/10 00:28:41;;;;;;;4.72;2.20;;;;;;;14.78;65.13;102523.25;3594798;39;21343;-60
2022/07/10 00:31:10;;;;;;;3.72;1.73;;;;;;;14.76;65.19;102524.28;3597139;39;20055;-61
2022/07/10 00:33:37;;;;;;;6.95;2.60;;;;;;;14.60;65.26;102495.31;3598491;39;20062;-60
2022/07/10 00:36:06;;;;;;;8.20;2.50;;;;;;;14.75;65.43;102519.84;3599119;39;20051;-60
2022/07/10 00:38:32;;;;;;;6.18;2.28;;;;;;;14.71;64.83;102519.09;3596563;39;20151;-60
2022/07/10 00:40:58;;;;;;;5.82;2.63;;;;;;;14.68;65.48;102524.66;3598992;39;20359;-61
2022/07/10 00:43:24;;;;;;;4.03;1.67;;;;;;;14.38;65.20;102465.75;3599751;39;20047;-60
2022/07/10 00:45:50;;;;;;;6.97;2.00;;;;;;;14.69;65.43;102509.31;3597320;39;20059;-60
2022/07/10 00:48:16;;;;;;;5.07;2.22;;;;;;;14.69;65.61;102510.19;3597549;39;20056;-60
2022/07/10 00:50:46;;;;;;;4.55;2.05;;;;;;;14.66;65.49;102509.47;3598177;39;20628;-60
2022/07/10 00:53:13;;;;;;;5.80;2.20;;;;;;;14.63;66.02;102500.56;3600565;39;20386;-60
2022/07/10 00:55:41;;;;;;;7.72;2.25;;;;;;;14.61;66.04;102501.59;3599398;39;20807;-60
2022/07/10 00:58:11;;;;;;;7.78;2.60;;;;;;;14.61;65.88;102507.00;3600173;39;20067;-59
2022/07/10 01:00:37;;;;;;;5.22;2.20;;;;;;;14.51;65.96;102487.66;3599331;39;20047;-60
2022/07/10 01:03:03;;;;;;;5.18;2.00;;;;;;;14.58;66.35;102501.75;3598935;39;20116;-60
2022/07/10 01:05:29;;;;;;;7.07;2.40;;;;;;;14.57;66.00;102497.28;3599009;39;20056;-60
2022/07/10 01:07:55;;;;;;;4.13;2.25;;;;;;;14.62;66.26;102495.25;3598450;39;20564;-61
2022/07/10 01:10:20;;;;;;;8.90;2.75;;;;;;;14.68;66.37;102497.59;3598737;39;20101;-61
2022/07/10 01:12:47;;;;;;;4.50;2.60;;;;;;;14.73;66.29;102497.38;3597753;39;20330;-60
2022/07/10 01:15:13;;;;;;;5.45;2.65;;;;;;;14.76;66.26;102494.50;3599128;39;20124;-61
2022/07/10 01:17:39;;;;;;;5.65;2.70;;;;;;;14.79;66.31;102484.38;3598463;39;20373;-61
2022/07/10 01:20:09;;;;;;;5.40;2.75;;;;;;;14.79;66.24;102483.50;3599523;39;20056;-60
2022/07/10 01:22:37;;;;;;;6.38;2.42;;;;;;;14.79;66.52;102484.38;3598622;39;20062;-60
2022/07/10 01:25:05;;;;;;;8.80;2.88;;;;;;;14.70;66.43;102471.31;3599497;39;20515;-61
2022/07/10 01:27:31;;;;;;;6.18;2.20;;;;;;;14.69;66.58;102466.00;3598647;39;20306;-60
2022/07/10 01:29:58;;;;;;;5.55;2.58;;;;;;;14.67;66.65;102473.31;3596653;39;20058;-61
2022/07/10 01:32:24;;;;;;;6.20;2.33;;;;;;;14.61;66.87;102469.97;3599182;39;20047;-60
2022/07/10 01:34:50;;;;;;;7.40;2.70;;;;;;;14.60;67.04;102470.94;3597275;39;20405;-60
2022/07/10 01:37:15;;;;;;;5.25;2.15;;;;;;;14.57;67.32;102468.41;3598037;39;20059;-61
2022/07/10 01:39:41;;;;;;;4.20;2.33;;;;;;;14.54;67.59;102463.13;3598433;39;20070;-60
2022/07/10 01:42:06;;;;;;;5.15;2.42;;;;;;;14.49;67.73;102464.28;3597053;39;20375;-60
2022/07/10 01:44:32;;;;;;;6.03;2.60;;;;;;;14.46;67.48;102476.19;3596393;39;20059;-60
2022/07/10 01:46:57;;;;;;;6.55;1.90;;;;;;;14.43;67.78;102470.94;3597138;39;20074;-60
2022/07/10 01:49:23;;;;;;;6.95;2.50;;;;;;;14.44;68.18;102471.78;3599328;39;20051;-63
2022/07/10 01:51:48;;;;;;;8.25;2.80;;;;;;;14.43;67.78;102476.34;3596710;39;20043;-62
2022/07/10 01:54:14;;;;;;;4.40;2.20;;;;;;;14.37;67.95;102468.53;3599557;39;20047;-62
2022/07/10 01:56:40;;;;;;;6.35;2.00;;;;;;;14.35;68.47;102462.31;3598556;39;20112;-62
2022/07/10 01:59:05;;;;;;;6.40;2.55;;;;;;;14.34;68.44;102479.50;3598198;39;20059;-62
2022/07/10 02:01:31;;;;;;;3.00;1.98;;;;;;;14.28;68.72;102477.13;3598528;39;20062;-62
2022/07/10 02:06:42;;;;;;;6.82;2.45;;;;;;;14.26;68.54;102471.78;3596372;39;20071;-62
2022/07/10 02:09:07;;;;;;;3.80;2.20;;;;;;;14.25;68.63;102474.56;3598400;39;20075;-61
2022/07/10 02:11:33;;;;;;;6.32;2.47;;;;;;;14.17;69.06;102481.22;3597531;39;20051;-61
2022/07/10 02:13:59;;;;;;;7.63;2.40;;;;;;;14.15;68.87;102471.47;3598790;39;20059;-62
2022/07/10 02:16:24;;;;;;;5.30;2.20;;;;;;;14.14;69.19;102469.69;3597269;39;20156;-62
2022/07/10 02:18:50;;;;;;;7.10;2.30;;;;;;;14.10;69.21;102473.50;3596045;39;20078;-62
2022/07/10 02:21:15;;;;;;;7.47;2.40;;;;;;;13.94;69.33;102443.66;3600015;39;20433;-62
2022/07/10 02:23:42;;;;;;;10.30;2.33;;;;;;;14.08;69.40;102470.91;3597530;39;20079;-62
2022/07/10 02:26:07;;;;;;;3.45;1.98;;;;;;;14.08;69.40;102465.50;3598107;39;20055;-62
2022/07/10 02:28:33;;;;;;;7.28;2.70;;;;;;;14.08;69.44;102470.91;3597295;39;20066;-62
2022/07/10 02:30:58;;;;;;;6.13;2.33;;;;;;;14.07;69.81;102469.13;3597155;39;20161;-62
2022/07/10 02:33:24;;;;;;;5.65;2.60;;;;;;;14.04;69.66;102463.00;3598286;39;20058;-62
2022/07/10 02:35:50;;;;;;;6.22;2.42;;;;;;;14.06;69.48;102461.97;3597185;39;20062;-62
2022/07/10 02:38:16;;;;;;;4.88;2.38;;;;;;;14.02;69.53;102460.38;3597955;39;20099;-61
2022/07/10 02:40:42;;;;;;;2.83;2.03;;;;;;;14.03;69.80;102463.97;3595964;39;20075;-62
2022/07/10 02:43:07;;;;;;;10.95;2.67;;;;;;;14.01;69.41;102472.13;3596057;39;20078;-62
2022/07/10 02:45:33;;;;;;;6.85;2.38;;;;;;;13.96;69.73;102462.53;3596627;39;20047;-62
2022/07/10 02:47:58;;;;;;;9.00;2.90;;;;;;;13.94;70.13;102463.47;3597451;39;20076;-61
2022/07/10 02:50:24;;;;;;;6.75;2.72;;;;;;;13.89;70.43;102462.81;3598427;39;20511;-62
2022/07/10 02:52:49;;;;;;;6.03;2.53;;;;;;;13.85;70.59;102460.34;3597111;39;20143;-62
2022/07/10 02:55:15;;;;;;;5.57;2.85;;;;;;;13.81;71.34;102466.84;3598576;39;20051;-62
2022/07/10 02:57:41;;;;;;;5.30;2.50;;;;;;;13.80;70.77;102457.00;3597980;39;20069;-62
2022/07/10 03:00:07;;;;;;;3.83;2.40;;;;;;;13.82;71.14;102458.66;3597453;39;20059;-62
2022/07/10 03:02:33;;;;;;;5.68;2.78;;;;;;;13.81;71.11;102456.03;3597997;39;20051;-62
2022/07/10 03:04:58;;;;;;;7.07;2.65;;;;;;;13.83;71.25;102451.44;3597697;39;20060;-63
2022/07/10 03:07:24;;;;;;;6.10;2.50;;;;;;;13.87;71.27;102458.44;3597904;39;20408;-61
2022/07/10 03:09:49;;;;;;;7.60;3.03;;;;;;;13.93;71.36;102458.13;3595823;39;20055;-62
2022/07/10 03:12:15;;;;;;;6.97;2.60;;;;;;;13.98;70.82;102458.75;3598430;39;20066;-62
2022/07/10 03:14:41;;;;;;;5.43;2.35;;;;;;;14.01;71.06;102447.78;3597216;39;20055;-62
2022/07/10 03:17:06;;;;;;;5.95;2.38;;;;;;;14.01;70.71;102458.63;3596860;39;20405;-61
2022/07/10 03:19:33;;;;;;;5.10;2.70;;;;;;;13.66;71.12;102395.50;3594615;39;20057;-62
2022/07/10 03:21:59;;;;;;;8.07;2.92;;;;;;;13.93;70.64;102450.03;3596486;39;20159;-61
2022/07/10 03:24:25;;;;;;;5.95;2.35;;;;;;;13.70;70.65;102421.41;3597459;39;20357;-61
2022/07/10 03:26:50;;;;;;;9.50;2.78;;;;;;;13.86;70.99;102441.34;3595787;39;20067;-62
2022/07/10 03:29:16;;;;;;;7.22;3.20;;;;;;;13.49;71.16;102390.06;3598090;39;20063;-61
2022/07/10 03:31:42;;;;;;;6.80;2.75;;;;;;;13.84;70.74;102447.78;3587673;39;20120;-62
2022/07/10 03:34:08;;;;;;;5.13;2.70;;;;;;;13.67;70.78;102417.06;3597332;39;20048;-62
2022/07/10 03:36:33;;;;;;;7.65;3.10;;;;;;;13.79;71.12;102444.41;3597111;39;20286;-62
2022/07/10 03:38:59;;;;;;;7.35;2.80;;;;;;;13.77;71.14;102438.22;3597008;39;20067;-62
2022/07/10 03:41:24;;;;;;;6.20;3.00;;;;;;;13.75;71.24;102440.13;3597427;39;20104;-62
2022/07/10 03:43:50;;;;;;;7.80;2.80;;;;;;;13.72;71.23;102442.97;3596993;39;20052;-60
2022/07/10 03:46:16;;;;;;;6.45;3.10;;;;;;;13.73;71.54;102433.91;3597077;39;20104;-61
2022/07/10 03:48:41;;;;;;;11.02;3.53;;;;;;;13.70;71.20;102426.81;3595125;39;20394;-62
2022/07/10 03:51:07;;;;;;;6.20;2.70;;;;;;;12.58;71.53;102242.34;3595376;39;20383;-61
2022/07/10 03:53:32;;;;;;;5.72;2.70;;;;;;;13.65;71.58;102429.75;3595678;39;20086;-62
2022/07/10 03:56:00;;;;;;;5.03;2.90;;;;;;;13.69;71.85;102441.28;3595504;39;20417;-61
2022/07/10 03:58:26;;;;;;;7.50;3.28;;;;;;;13.65;71.77;102432.47;3597645;39;20127;-61
2022/07/10 04:00:51;;;;;;;4.82;3.13;;;;;;;13.63;72.09;102437.06;3597967;39;20047;-62
2022/07/10 04:03:18;;;;;;;8.40;2.92;;;;;;;13.65;72.07;102434.28;3597854;39;20067;-62
2022/07/10 04:05:43;;;;;;;3.85;2.70;;;;;;;13.65;71.64;102440.56;3596825;39;20063;-61
2022/07/10 04:08:09;;;;;;;9.63;3.60;;;;;;;13.64;72.03;102427.16;3590849;39;20047;-62
2022/07/10 04:10:35;;;;;;;4.75;2.80;;;;;;;13.66;72.13;102434.22;3597824;39;20051;-61
2022/07/10 04:13:01;;;;;;;6.95;2.92;;;;;;;13.67;72.37;102432.41;3599125;39;20064;-62
2022/07/10 04:15:27;;;;;;;6.47;2.92;;;;;;;13.74;72.23;102433.84;3599711;39;20105;-62
2022/07/10 04:17:54;;;;;;;6.55;2.80;;;;;;;13.55;71.93;102401.44;3597715;39;20398;-62
2022/07/10 04:20:21;;;;;;;5.72;3.03;;;;;;;13.81;72.13;102437.13;3602008;39;20043;-62
2022/07/10 04:22:47;;;;;;;8.15;3.22;;;;;;;13.85;72.15;102442.28;3598582;39;20051;-62
2022/07/10 04:25:13;;;;;;;7.80;3.10;;;;;;;13.70;71.53;102408.81;3598769;39;20048;-61
2022/07/10 04:27:38;;;;;;;6.22;3.15;;;;;;;13.96;71.23;102441.75;3599657;39;20043;-62
2022/07/10 04:30:06;;;;;;;7.00;3.28;;;;;;;14.01;71.02;102436.97;3596204;39;20302;-62
2022/07/10 04:32:32;;;;;;;6.40;2.80;;;;;;;14.02;71.25;102421.63;3599728;39;20071;-61
2022/07/10 04:34:57;;;;;;;9.30;3.20;;;;;;;14.15;71.16;102423.66;3597485;39;20067;-61
2022/07/10 04:37:23;;;;;;;7.43;2.88;;;;;;;14.21;70.59;102426.97;3600138;39;20151;-60
2022/07/10 04:39:49;;;;;;;8.98;3.00;;;;;;;14.27;70.48;102437.47;3596187;39;20103;-60
2022/07/10 04:42:15;;;;;;;6.72;2.70;;;;;;;14.25;70.63;102425.88;3600762;39;20171;-62
2022/07/10 04:44:40;;;;;;;6.07;2.75;;;;;;;14.38;70.36;102437.81;3599257;39;20047;-60
2022/07/10 04:47:06;;;;;;;8.93;3.20;;;;;;;14.35;70.04;102419.91;3599745;39;20065;-60
2022/07/10 04:49:33;;;;;;;5.53;2.70;;;;;;;14.51;70.00;102430.81;3600459;39;20238;-60
2022/07/10 04:52:00;;;;;;;8.90;2.92;;;;;;;14.55;69.84;102435.13;3597915;39;20048;-60
2022/07/10 04:54:26;;;;;;;5.55;3.05;;;;;;;14.60;70.04;102430.34;3601018;39;20056;-60
2022/07/10 04:56:51;;;;;;;4.93;2.70;;;;;;;14.66;69.61;102441.81;3588373;39;20070;-60
2022/07/10 04:59:17;;;;;;;6.35;2.75;;;;;;;14.67;69.36;102447.13;3600290;39;20799;-60
2022/07/10 05:01:43;;;;;;;7.32;2.97;;;;;;;14.72;69.18;102444.19;3599487;39;20390;-60
2022/07/10 05:04:08;;;;;;;6.88;2.90;;;;;;;14.78;68.94;102449.25;3599018;39;20051;-60
2022/07/10 05:06:35;;;;;;;8.43;2.80;;;;;;;14.82;68.53;102445.44;3599245;39;20047;-60
2022/07/10 05:09:02;;;;;;;5.90;3.15;;;;;;;14.84;68.77;102440.81;3594133;39;20077;-60
2022/07/10 05:11:27;;;;;;;8.27;2.90;;;;;;;14.90;68.68;102429.63;3596795;39;20052;-60
2022/07/10 05:13:53;;;;;;;5.55;3.17;;;;;;;14.92;68.44;102443.97;3597147;39;20051;-60
2022/07/10 05:16:19;;;;;;;7.90;3.40;;;;;;;14.98;69.14;102448.19;3598803;39;20405;-60
2022/07/10 05:18:45;;;;;;;6.13;2.90;;;;;;;15.03;68.63;102438.88;3597543;39;20063;-60
2022/07/10 05:21:11;;;;;;;4.55;2.80;;;;;;;14.92;68.60;102422.31;3599561;39;20136;-60
2022/07/10 05:23:38;;;;;;;5.18;3.13;;;;;;;15.16;68.67;102444.50;3599262;39;20051;-60
2022/07/10 05:26:05;;;;;;;6.30;2.83;;;;;;;15.21;68.28;102449.63;3597363;39;20058;-60
2022/07/10 05:28:31;;;;;;;5.78;3.08;;;;;;;15.18;68.48;102449.81;3599139;39;20062;-60
2022/07/10 05:30:56;;;;;;;3.15;2.80;;;;;;;15.14;68.54;102430.13;3596391;39;20063;-60
2022/07/10 05:33:22;;;;;;;8.75;2.80;;;;;;;15.14;68.18;102432.84;3597423;39;20064;-61
2022/07/10 05:35:48;;;;;;;6.05;2.90;;;;;;;15.19;68.49;102438.00;3598737;39;20043;-60
2022/07/10 05:38:14;;;;;;;7.93;3.10;;;;;;;15.20;68.41;102437.94;3597794;39;20566;-61
2022/07/10 05:40:40;;;;;;;5.18;2.58;;;;;;;15.23;68.65;102439.59;3599023;39;20055;-60
2022/07/10 05:43:06;;;;;;;7.20;2.55;;;;;;;15.26;69.20;102443.00;3595046;39;20051;-61
2022/07/10 05:45:32;;;;;;;5.93;2.30;;;;;;;15.32;68.68;102447.22;3597712;39;20054;-61
2022/07/10 05:47:57;;;;;;;4.90;2.30;;;;;;;15.43;68.71;102446.59;3596169;39;20087;-60
2022/07/10 05:50:23;;;;;;;3.90;2.40;;;;;;;15.40;69.05;102436.81;3597713;39;20604;-60
2022/07/10 05:52:48;;;;;;;8.27;2.63;;;;;;;15.58;68.58;102445.75;3598185;39;20054;-61
2022/07/10 05:55:15;;;;;;;3.58;2.10;;;;;;;15.68;68.56;102443.41;3598206;39;20047;-61
2022/07/10 05:57:40;;;;;;;5.47;2.28;;;;;;;15.75;68.33;102442.94;3598774;39;20063;-61
2022/07/10 06:00:08;;;;;;;3.85;1.80;;;;;;;15.90;68.09;102446.63;3595936;39;20490;-60
2022/07/10 06:02:34;;;;;;;5.35;1.75;;;;;;;15.74;67.70;102392.41;3599522;39;20054;-60
2022/07/10 06:05:00;;;;;;;4.40;1.55;;;;;;;16.13;67.17;102447.97;3596745;39;20071;-61
2022/07/10 06:07:27;;;;;;;8.48;1.70;;;;;;;16.27;66.64;102446.25;3597527;39;20059;-60
2022/07/10 06:09:54;;;;;;;5.10;2.05;;;;;;;16.35;66.18;102436.69;3594342;39;20060;-61
2022/07/10 06:12:20;;;;;;;4.63;1.80;;;;;;;16.51;65.98;102442.06;3597010;39;20056;-60
2022/07/10 06:14:45;;;;;;;5.80;1.90;;;;;;;16.62;64.57;102434.16;3597785;39;20077;-61
2022/07/10 06:17:11;;;;;;;6.97;1.90;;;;;;;16.77;64.66;102435.06;3587716;39;20059;-60
2022/07/10 06:19:37;;;;;;;9.57;1.98;;;;;;;16.92;64.98;102439.53;3597438;39;20059;-60
2022/07/10 06:24:47;;;;;;;9.93;2.03;;;;;;;17.04;62.80;102407.16;3596248;39;20127;-60
2022/07/10 06:27:13;;;;;;;4.90;1.77;;;;;;;17.47;61.95;102442.41;3596711;39;20397;-60
2022/07/10 06:29:38;;;;;;;5.72;1.52;;;;;;;17.69;60.61;102448.19;3589829;39;20051;-59
2022/07/10 06:32:05;;;;;;;8.77;1.90;;;;;;;17.94;59.68;102452.03;3596935;39;20063;-60
2022/07/10 06:34:31;;;;;;;8.23;1.35;;;;;;;18.18;58.63;102450.38;3597145;39;20101;-60
2022/07/10 06:36:57;;;;;;;5.18;1.80;;;;;;;18.41;58.10;102434.31;3595967;39;20609;-60
2022/07/10 06:39:22;;;;;;;12.40;1.70;;;;;;;18.51;57.79;102440.84;3597265;39;20052;-60
2022/07/10 06:41:48;;;;;;;4.90;1.63;;;;;;;18.59;57.92;102448.50;3596021;39;20062;-60
2022/07/10 06:44:13;;;;;;;6.15;1.55;;;;;;;18.74;56.34;102437.44;3596291;39;20075;-60
2022/07/10 06:46:39;;;;;;;4.72;1.50;;;;;;;18.91;56.76;102435.34;3595598;39;20054;-60
2022/07/10 06:49:05;;;;;;;5.75;1.30;;;;;;;18.97;55.07;102437.66;3593903;39;20380;-60
2022/07/10 06:51:32;;;;;;;4.72;1.40;;;;;;;19.11;56.40;102437.50;3598182;39;20059;-60
2022/07/10 06:53:58;;;;;;;7.53;1.90;;;;;;;19.22;55.81;102440.34;3596931;39;20398;-60
2022/07/10 06:56:23;;;;;;;4.28;1.40;;;;;;;19.24;54.92;102435.63;3597020;39;20462;-61
2022/07/10 06:58:49;;;;;;;4.85;1.30;;;;;;;19.29;54.94;102443.50;3597653;39;20064;-60
2022/07/10 07:01:15;;;;;;;5.80;1.55;;;;;;;19.30;54.92;102433.44;3598693;39;20062;-61
2022/07/10 07:03:40;;;;;;;8.95;2.20;;;;;;;19.23;55.06;102433.03;3597740;39;20051;-60
2022/07/10 07:06:06;;;;;;;4.53;1.38;;;;;;;19.36;55.73;102439.31;3600091;39;20051;-61
2022/07/10 07:08:32;;;;;;;5.75;1.45;;;;;;;19.57;54.51;102434.16;3598475;39;20051;-60
2022/07/10 07:10:57;;;;;;;7.60;1.95;;;;;;;19.78;53.76;102431.69;3595289;39;20385;-60
2022/07/10 07:13:23;;;;;;;4.15;1.48;;;;;;;19.98;53.72;102435.66;3598244;39;20051;-61
2022/07/10 07:16:09;;;;;;;7.63;1.70;;;;;;;20.20;53.50;102429.38;3598134;39;20055;-60
2022/07/10 07:18:37;;;;;;;5.18;1.50;;;;;;;20.42;52.42;102439.53;3595738;39;20294;-59
2022/07/10 07:23:47;;;;;;;6.78;1.67;;;;;;;20.55;51.41;102445.81;3597654;39;20121;-60
2022/07/10 07:26:12;;;;;;;8.48;1.98;;;;;;;20.54;52.22;102443.19;3596723;39;20056;-61
2022/07/10 07:28:38;;;;;;;5.30;1.40;;;;;;;20.60;51.80;102451.78;3595917;39;20102;-60
2022/07/10 07:31:04;;;;;;;4.63;1.45;;;;;;;20.63;52.25;102447.94;3597167;39;20284;-60
2022/07/10 07:33:30;;;;;;;7.70;1.73;;;;;;;20.44;52.51;102431.22;3599063;39;20386;-60
2022/07/10 07:35:56;;;;;;;6.20;1.90;;;;;;;20.51;52.43;102443.41;3594540;39;20070;-60
2022/07/10 07:38:22;;;;;;;6.25;1.90;;;;;;;20.45;52.43;102447.47;3598486;39;20047;-60
2022/07/10 07:40:47;;;;;;;6.30;2.38;;;;;;;20.42;53.29;102447.72;3597277;39;20043;-60
2022/07/10 07:43:13;;;;;;;6.78;1.73;;;;;;;20.33;53.74;102440.22;3596896;39;20555;-60
2022/07/10 07:45:38;;;;;;;6.53;1.52;;;;;;;20.23;53.84;102447.41;3596851;39;20105;-60
2022/07/10 07:48:04;;;;;;;7.47;1.98;;;;;;;20.15;53.58;102448.88;3595432;39;20060;-60
2022/07/10 07:50:34;;;;;;;8.85;2.10;;;;;;;20.12;53.73;102442.78;3598753;39;20055;-60
2022/07/10 07:53:03;;;;;;;6.78;2.38;;;;;;;20.17;53.63;102446.00;3595773;39;20394;-61
2022/07/10 07:55:30;;;;;;;5.05;2.17;;;;;;;20.26;53.17;102442.56;3596864;39;20518;-60
2022/07/10 07:57:57;;;;;;;6.82;2.33;;;;;;;20.36;52.48;102445.47;3596263;39;20074;-61
2022/07/10 08:00:27;;;;;;;4.70;2.13;;;;;;;20.47;52.87;102442.78;3598059;39;20071;-61
2022/07/10 08:02:55;;;;;;;6.63;2.25;;;;;;;20.61;53.00;102445.34;3599069;39;20048;-61
2022/07/10 08:05:24;;;;;;;7.25;2.10;;;;;;;20.55;52.39;102445.81;3597318;39;20097;-61
2022/07/10 08:07:57;;;;;;;6.63;2.67;;;;;;;20.43;52.69;102452.22;3599815;39;20052;-60
2022/07/10 08:10:28;;;;;;;8.85;2.50;;;;;;;20.26;53.63;102455.34;3596743;39;20071;-61
2022/07/10 08:12:54;;;;;;;9.65;2.78;;;;;;;20.17;54.01;102452.38;3596311;39;20062;-60
2022/07/10 08:15:22;;;;;;;7.97;2.50;;;;;;;20.12;54.23;102450.97;3597299;39;20054;-61
2022/07/10 08:17:50;;;;;;;7.97;2.78;;;;;;;20.20;55.53;102439.44;3594441;39;20043;-61
2022/07/10 08:20:17;;;;;;;7.57;2.92;;;;;;;20.29;54.65;102439.59;3594632;39;20056;-61
2022/07/10 08:22:44;;;;;;;9.73;2.90;;;;;;;20.40;53.25;102444.25;3596275;39;20060;-60
2022/07/10 08:25:10;;;;;;;8.35;3.30;;;;;;;20.46;53.49;102441.06;3596227;39;20058;-61
2022/07/10 08:27:36;;;;;;;9.00;3.08;;;;;;;20.54;53.53;102437.72;3596676;39;20083;-61
2022/07/10 08:30:04;;;;;;;9.60;2.97;;;;;;;20.62;53.56;102444.34;3597478;39;20101;-61
2022/07/10 08:32:30;;;;;;;9.20;3.72;;;;;;;20.79;51.98;102442.13;3596844;39;20059;-61
2022/07/10 08:34:55;;;;;;;7.05;3.03;;;;;;;20.95;51.72;102437.19;3595309;39;20054;-61
2022/07/10 08:37:21;;;;;;;8.38;3.97;;;;;;;21.04;51.44;102441.91;3596370;39;20409;-61
2022/07/10 08:39:47;;;;;;;6.32;2.20;;;;;;;20.96;51.18;102443.50;3597980;39;21028;-61
2022/07/10 08:42:16;;;;;;;7.07;2.60;;;;;;;20.61;52.52;102396.16;3598669;39;20289;-61
2022/07/10 08:44:41;;;;;;;8.25;2.90;;;;;;;20.77;52.10;102439.53;3598154;39;20076;-61
2022/07/10 08:47:07;;;;;;;7.00;2.53;;;;;;;20.63;52.99;102446.06;3597814;39;20070;-61
2022/07/10 08:49:35;;;;;;;11.00;2.95;;;;;;;20.57;53.69;102442.97;3596738;39;20075;-60
2022/07/10 08:52:08;;;;;;;10.60;2.42;;;;;;;20.51;54.19;102443.41;3596348;39;20058;-61
2022/07/10 08:54:35;;;;;;;8.05;2.60;;;;;;;20.34;53.16;102436.53;3598472;39;20063;-61
2022/07/10 08:57:03;;;;;;;4.15;2.28;;;;;;;20.18;54.10;102437.72;3601628;39;20062;-61
2022/07/10 08:59:29;;;;;;;9.85;2.83;;;;;;;20.22;54.39;102449.28;3600793;39;20051;-62
2022/07/10 09:01:56;;;;;;;9.23;2.88;;;;;;;20.16;54.12;102450.59;3598355;39;20068;-61
2022/07/10 09:04:25;;;;;;;8.52;2.42;;;;;;;20.11;53.80;102461.03;3597266;39;20059;-62
2022/07/10 09:06:53;;;;;;;8.07;2.53;;;;;;;20.14;54.08;102452.59;3600333;39;20099;-61
2022/07/10 09:09:20;;;;;;;6.20;2.72;;;;;;;20.10;55.11;102450.22;3598518;39;20169;-61
2022/07/10 09:11:47;;;;;;;8.38;2.65;;;;;;;20.03;55.35;102432.56;3597803;39;20071;-62
2022/07/10 09:14:17;;;;;;;7.82;2.80;;;;;;;20.21;53.98;102443.94;3589118;39;20047;-61
2022/07/10 09:16:49;;;;;;;10.45;3.00;;;;;;;20.27;54.69;102435.28;3598079;39;20087;-61
2022/07/10 09:19:18;;;;;;;6.97;2.63;;;;;;;20.23;54.70;102431.88;3595536;39;20105;-61
2022/07/10 09:21:46;;;;;;;6.05;2.33;;;;;;;20.24;54.93;102443.72;3596172;39;20059;-61
2022/07/10 09:24:12;;;;;;;7.65;2.60;;;;;;;20.30;55.71;102429.56;3599089;39;20294;-62
2022/07/10 09:26:40;;;;;;;8.88;3.03;;;;;;;20.37;54.84;102428.09;3587503;39;20039;-61
2022/07/10 09:29:12;;;;;;;10.88;3.33;;;;;;;20.51;54.56;102427.00;3595792;39;20061;-61
2022/07/10 09:31:59;;;;;;;9.02;2.60;;;;;;;20.55;53.65;102428.53;3598492;39;20088;-61
2022/07/10 09:34:46;;;;;;;8.98;2.95;;;;;;;20.59;53.79;102421.88;3598662;39;20052;-61
2022/07/10 09:37:28;;;;;;;4.82;2.30;;;;;;;20.56;53.87;102414.78;3598919;39;20310;-62
2022/07/10 09:40:04;;;;;;;5.85;2.30;;;;;;;20.49;53.63;102418.94;3597481;39;20129;-61
2022/07/10 09:42:42;;;;;;;13.00;4.05;;;;;;;20.33;54.31;102397.44;3596953;39;20060;-61
2022/07/10 09:45:14;;;;;;;16.58;5.13;;;;;;;20.61;53.62;102418.03;3595478;39;20354;-61
2022/07/10 09:47:41;;;;;;;4.20;2.10;;;;;;;20.77;53.98;102417.69;3596655;39;20119;-61
2022/07/10 09:50:22;;;;;;;7.65;2.55;;;;;;;20.89;53.26;102423.13;3596234;39;20084;-63
2022/07/10 09:52:58;;;;;;;3.60;1.50;;;;;;;20.87;52.44;102423.28;3596852;39;20396;-61
2022/07/10 09:55:29;;;;;;;4.95;2.20;;;;;;;20.85;53.50;102414.31;3597002;39;20055;-61
2022/07/10 09:58:00;;;;;;;14.70;3.80;;;;;;;20.82;52.95;102414.56;3596030;39;20390;-61
2022/07/10 10:00:35;;;;;;;7.97;2.70;;;;;;;20.79;54.46;102409.34;3588417;39;20074;-62
2022/07/10 10:03:03;;;;;;;4.80;2.20;;;;;;;20.91;53.75;102411.09;3596735;39;20059;-60
2022/07/10 10:06:01;;;;;;;9.05;2.55;;;;;;;21.13;51.91;102406.63;3595496;39;20047;-61
2022/07/10 10:09:02;;;;;;;8.75;2.90;;;;;;;21.26;52.65;102412.81;3595149;39;20059;-62
2022/07/10 10:11:32;;;;;;;68.97;19.48;;;;;;;21.21;51.95;102409.56;3595389;39;20063;-61
2022/07/10 10:14:01;;;;;;;10.55;3.70;;;;;;;21.17;51.55;102413.56;3597375;39;20087;-62
2022/07/10 10:16:28;;;;;;;9.52;2.78;;;;;;;21.13;52.44;102409.34;3596774;39;20056;-62
2022/07/10 10:21:40;;;;;;;4.15;2.30;;;;;;;21.45;52.35;102412.22;3594468;39;20088;-62
2022/07/10 10:24:07;;;;;;;6.13;2.33;;;;;;;21.73;52.09;102411.63;3599582;39;20116;-62
2022/07/10 10:26:33;;;;;;;5.88;2.22;;;;;;;21.95;50.96;102405.22;3597263;39;20047;-61
2022/07/10 10:29:04;;;;;;;4.38;2.03;;;;;;;22.00;50.12;102397.47;3595273;39;20088;-62
2022/07/10 10:31:32;;;;;;;3.85;2.00;;;;;;;21.98;51.67;102399.47;3593984;39;20083;-62
2022/07/10 10:34:00;;;;;;;3.95;1.90;;;;;;;21.87;50.48;102391.28;3597551;39;20136;-61
2022/07/10 10:36:46;;;;;;;2.80;2.10;;;;;;;21.87;49.82;102385.81;3594818;39;20059;-61
2022/07/10 10:39:16;;;;;;;3.45;1.90;;;;;;;21.91;49.94;102394.63;3595687;39;20063;-62
2022/07/10 10:41:52;;;;;;;3.42;2.20;;;;;;;21.99;50.95;102403.94;3596794;39;20070;-62
2022/07/10 10:44:18;;;;;;;4.60;2.15;;;;;;;22.22;51.73;102395.66;3592947;39;20052;-61
2022/07/10 10:46:49;;;;;;;4.25;1.80;;;;;;;22.43;49.96;102401.16;3585531;39;20051;-62
2022/07/10 10:49:18;;;;;;;4.15;2.92;;;;;;;22.68;47.94;102395.25;3596677;39;20075;-62
2022/07/10 10:52:10;;;;;;;4.53;1.85;;;;;;;22.68;47.37;102397.13;3597001;39;20059;-62
2022/07/10 10:54:57;;;;;;;3.40;1.60;;;;;;;22.67;49.10;102398.97;3589083;39;20078;-61
2022/07/10 10:57:43;;;;;;;2.72;1.88;;;;;;;22.72;48.55;102393.09;3598172;39;20084;-62
2022/07/10 11:00:16;;;;;;;4.55;1.60;;;;;;;22.83;48.33;102390.25;3603380;39;20443;-62
2022/07/10 11:02:42;;;;;;;3.40;1.52;;;;;;;22.90;48.04;102391.47;3597511;39;20098;-62
2022/07/10 11:05:10;;;;;;;4.90;1.80;;;;;;;22.92;47.85;102386.69;3604683;39;20043;-62
2022/07/10 11:08:04;;;;;;;3.03;1.67;;;;;;;22.94;47.87;102392.09;3601955;39;20379;-63
2022/07/10 11:10:44;;;;;;;3.78;1.88;;;;;;;22.78;47.44;102387.06;3599352;39;20047;-62
2022/07/10 11:13:12;;;;;;;4.28;1.60;;;;;;;22.71;48.72;102384.00;3600123;39;20055;-62
2022/07/10 11:15:43;;;;;;;2.42;1.50;;;;;;;22.62;48.41;102376.59;3598237;39;21877;-61
2022/07/10 11:18:16;;;;;;;2.30;1.55;;;;;;;22.70;49.77;102384.13;3599735;39;20290;-62
2022/07/10 11:20:45;;;;;;;3.67;1.70;;;;;;;22.72;48.29;102379.38;3600461;39;20092;-61
2022/07/10 11:23:47;;;;;;;3.88;1.45;;;;;;;22.78;48.41;102376.09;3600751;39;20361;-61
2022/07/10 11:26:55;;;;;;;5.00;1.65;;;;;;;22.90;47.96;102371.41;3598144;39;20302;-61
2022/07/10 11:29:20;;;;;;;4.57;1.60;;;;;;;23.03;48.15;102377.56;3599181;39;20087;-61
2022/07/10 11:31:55;;;;;;;2.60;1.40;;;;;;;23.13;47.43;102369.34;3599791;39;20463;-65
2022/07/10 11:34:36;;;;;;;3.33;1.55;;;;;;;23.32;47.49;102374.03;3599607;39;20047;-63
2022/07/10 11:37:02;;;;;;;2.65;1.40;;;;;;;23.37;47.76;102367.13;3597379;39;20059;-65
2022/07/10 11:39:28;;;;;;;2.88;1.25;;;;;;;23.43;47.40;102373.03;3597211;39;20063;-65